sensor_id;sensor_type;location;lat;lon;timestamp;P1;durP1;ratioP1;P2;durP2;ratioP2
9597;SDS011;4837;50.890;4.724;2023-09-18T10:54:41;3.60;;;2.10;;
9597;SDS011;4837;50.890;4.724;2023-09-18T10:57:07;4.75;;;2.35;;
9597;SDS011;4837;50.890;4.724;2023-09-18T10:59:33;3.92;;;2.22;;
9597;SDS011;4837;50.890;4.724;2023-09-18T11:02:03;4.55;;;2.13;;
9597;SDS011;4837;50.890;4.724;2023-09-18T11:04:32;3.47;;;2.63;;
9597;SDS011;4837;50.890;4.724;2023-09-18T11:09:26;4.53;;;2.63;;
9597;SDS011;4837;50.890;4.724;2023-09-18T11:11:53;2.85;;;2.58;;
9597;SDS011;4837;50.890;4.724;2023-09-18T11:14:23;3.85;;;2.40;;
9597;SDS011;4837;50.890;4.724;2023-09-18T11:16:49;10.13;;;2.78;;
9597;SDS011;4837;50.890;4.724;2023-09-18T11:19:16;4.28;;;2.35;;
9597;SDS011;4837;50.890;4.724;2023-09-18T11:21:44;5.53;;;2.30;;
9597;SDS011;4837;50.890;4.724;2023-09-18T11:26:44;3.95;;;2.28;;
9597;SDS011;4837;50.890;4.724;2023-09-18T11:29:11;6.85;;;2.13;;
9597;SDS011;4837;50.890;4.724;2023-09-18T11:31:41;2.80;;;2.30;;
9597;SDS011;4837;50.890;4.724;2023-09-18T11:34:12;3.40;;;1.90;;
9597;SDS011;4837;50.890;4.724;2023-09-18T11:36:38;3.88;;;2.30;;
9597;SDS011;4837;50.890;4.724;2023-09-18T11:39:04;3.50;;;2.30;;
9597;SDS011;4837;50.890;4.724;2023-09-18T11:41:34;4.25;;;2.13;;
9597;SDS011;4837;50.890;4.724;2023-09-18T11:46:47;6.38;;;2.45;;
9597;SDS011;4837;50.890;4.724;2023-09-18T11:49:23;4.18;;;1.83;;
9597;SDS011;4837;50.890;4.724;2023-09-18T11:51:53;6.63;;;2.60;;
9597;SDS011;4837;50.890;4.724;2023-09-18T11:54:19;3.95;;;2.33;;
9597;SDS011;4837;50.890;4.724;2023-09-18T11:56:49;5.88;;;2.45;;
9597;SDS011;4837;50.890;4.724;2023-09-18T11:59:15;3.38;;;2.50;;
9597;SDS011;4837;50.890;4.724;2023-09-18T12:01:51;3.88;;;2.90;;
9597;SDS011;4837;50.890;4.724;2023-09-18T12:04:18;3.88;;;2.88;;
9597;SDS011;4837;50.890;4.724;2023-09-18T12:06:52;4.32;;;2.80;;
9597;SDS011;4837;50.890;4.724;2023-09-18T12:09:18;4.43;;;2.50;;
9597;SDS011;4837;50.890;4.724;2023-09-18T12:11:45;4.10;;;2.60;;
9597;SDS011;4837;50.890;4.724;2023-09-18T12:14:13;6.60;;;2.50;;
9597;SDS011;4837;50.890;4.724;2023-09-18T12:16:39;5.97;;;2.25;;
9597;SDS011;4837;50.890;4.724;2023-09-18T12:19:06;5.22;;;2.13;;
9597;SDS011;4837;50.890;4.724;2023-09-18T12:21:32;3.10;;;2.35;;
9597;SDS011;4837;50.890;4.724;2023-09-18T12:23:59;5.32;;;2.10;;
9597;SDS011;4837;50.890;4.724;2023-09-18T12:26:26;3.47;;;2.10;;
9597;SDS011;4837;50.890;4.724;2023-09-18T12:28:52;3.35;;;2.13;;
9597;SDS011;4837;50.890;4.724;2023-09-18T12:31:18;2.25;;;2.00;;
9597;SDS011;4837;50.890;4.724;2023-09-18T12:33:44;3.63;;;2.05;;
9597;SDS011;4837;50.890;4.724;2023-09-18T12:36:12;3.10;;;2.10;;
9597;SDS011;4837;50.890;4.724;2023-09-18T12:38:40;3.30;;;2.33;;
9597;SDS011;4837;50.890;4.724;2023-09-18T12:41:06;3.83;;;1.92;;
9597;SDS011;4837;50.890;4.724;2023-09-18T12:43:36;4.45;;;2.38;;
9597;SDS011;4837;50.890;4.724;2023-09-18T12:46:04;2.58;;;2.08;;
9597;SDS011;4837;50.890;4.724;2023-09-18T12:48:30;4.20;;;2.00;;
9597;SDS011;4837;50.890;4.724;2023-09-18T12:51:03;3.63;;;2.20;;
9597;SDS011;4837;50.890;4.724;2023-09-18T12:53:29;4.15;;;2.20;;
9597;SDS011;4837;50.890;4.724;2023-09-18T12:56:03;2.65;;;2.25;;
9597;SDS011;4837;50.890;4.724;2023-09-18T12:58:30;2.83;;;2.17;;
9597;SDS011;4837;50.890;4.724;2023-09-18T13:00:56;3.38;;;1.90;;
9597;SDS011;4837;50.890;4.724;2023-09-18T13:03:22;5.63;;;2.28;;
9597;SDS011;4837;50.890;4.724;2023-09-18T13:05:49;3.05;;;1.90;;
9597;SDS011;4837;50.890;4.724;2023-09-18T13:08:22;2.45;;;1.75;;
9597;SDS011;4837;50.890;4.724;2023-09-18T13:10:49;3.05;;;2.00;;
9597;SDS011;4837;50.890;4.724;2023-09-18T13:13:19;3.83;;;1.98;;
9597;SDS011;4837;50.890;4.724;2023-09-18T13:15:45;5.95;;;1.92;;
9597;SDS011;4837;50.890;4.724;2023-09-18T13:18:13;4.22;;;1.75;;
9597;SDS011;4837;50.890;4.724;2023-09-18T13:20:39;4.60;;;2.08;;
9597;SDS011;4837;50.890;4.724;2023-09-18T13:23:05;4.00;;;1.90;;
9597;SDS011;4837;50.890;4.724;2023-09-18T13:25:33;3.78;;;1.85;;
9597;SDS011;4837;50.890;4.724;2023-09-18T13:27:59;2.25;;;1.80;;
9597;SDS011;4837;50.890;4.724;2023-09-18T13:30:26;3.20;;;1.90;;
9597;SDS011;4837;50.890;4.724;2023-09-18T13:33:00;5.03;;;1.83;;
9597;SDS011;4837;50.890;4.724;2023-09-18T13:35:26;3.38;;;1.80;;
9597;SDS011;4837;50.890;4.724;2023-09-18T13:37:53;3.35;;;1.70;;
9597;SDS011;4837;50.890;4.724;2023-09-18T13:40:19;3.10;;;1.90;;
9597;SDS011;4837;50.890;4.724;2023-09-18T13:42:47;3.42;;;1.83;;
9597;SDS011;4837;50.890;4.724;2023-09-18T13:45:16;3.17;;;1.75;;
9597;SDS011;4837;50.890;4.724;2023-09-18T13:47:43;5.22;;;1.95;;
9597;SDS011;4837;50.890;4.724;2023-09-18T13:50:09;4.45;;;1.90;;
9597;SDS011;4837;50.890;4.724;2023-09-18T13:52:36;3.47;;;1.90;;
9597;SDS011;4837;50.890;4.724;2023-09-18T13:55:03;3.50;;;2.08;;
9597;SDS011;4837;50.890;4.724;2023-09-18T13:57:36;3.53;;;2.03;;
9597;SDS011;4837;50.890;4.724;2023-09-18T14:00:05;4.97;;;2.30;;
9597;SDS011;4837;50.890;4.724;2023-09-18T14:02:35;1.80;;;1.33;;
9597;SDS011;4837;50.890;4.724;2023-09-18T14:05:02;3.47;;;1.70;;
9597;SDS011;4837;50.890;4.724;2023-09-18T14:07:29;2.92;;;1.80;;
9597;SDS011;4837;50.890;4.724;2023-09-18T14:09:55;2.15;;;1.70;;
9597;SDS011;4837;50.890;4.724;2023-09-18T14:12:21;1.90;;;1.60;;
9597;SDS011;4837;50.890;4.724;2023-09-18T14:14:47;3.50;;;1.90;;
9597;SDS011;4837;50.890;4.724;2023-09-18T14:17:13;2.92;;;2.00;;
9597;SDS011;4837;50.890;4.724;2023-09-18T14:19:42;3.65;;;1.80;;
9597;SDS011;4837;50.890;4.724;2023-09-18T14:22:09;4.03;;;1.90;;
9597;SDS011;4837;50.890;4.724;2023-09-18T14:24:35;2.45;;;1.90;;
9597;SDS011;4837;50.890;4.724;2023-09-18T14:27:02;2.38;;;1.88;;
9597;SDS011;4837;50.890;4.724;2023-09-18T14:29:28;3.30;;;1.70;;
9597;SDS011;4837;50.890;4.724;2023-09-18T14:31:58;2.03;;;1.63;;
9597;SDS011;4837;50.890;4.724;2023-09-18T14:34:24;2.67;;;2.20;;
9597;SDS011;4837;50.890;4.724;2023-09-18T14:36:51;3.03;;;1.80;;
9597;SDS011;4837;50.890;4.724;2023-09-18T14:39:17;3.70;;;1.80;;
9597;SDS011;4837;50.890;4.724;2023-09-18T14:41:43;3.72;;;1.88;;
9597;SDS011;4837;50.890;4.724;2023-09-18T14:44:09;2.78;;;1.58;;
9597;SDS011;4837;50.890;4.724;2023-09-18T14:46:36;3.53;;;1.75;;
9597;SDS011;4837;50.890;4.724;2023-09-18T14:49:03;4.50;;;1.83;;
9597;SDS011;4837;50.890;4.724;2023-09-18T14:51:29;3.03;;;1.90;;
9597;SDS011;4837;50.890;4.724;2023-09-18T14:53:56;4.97;;;2.00;;
9597;SDS011;4837;50.890;4.724;2023-09-18T14:56:22;3.38;;;1.70;;
9597;SDS011;4837;50.890;4.724;2023-09-18T14:58:49;6.68;;;2.17;;
9597;SDS011;4837;50.890;4.724;2023-09-18T15:01:17;2.65;;;1.88;;
9597;SDS011;4837;50.890;4.724;2023-09-18T15:03:43;3.53;;;1.75;;
9597;SDS011;4837;50.890;4.724;2023-09-18T15:06:13;2.38;;;1.80;;
9597;SDS011;4837;50.890;4.724;2023-09-18T15:08:40;4.63;;;2.20;;
9597;SDS011;4837;50.890;4.724;2023-09-18T15:11:06;6.63;;;2.60;;
9597;SDS011;4837;50.890;4.724;2023-09-18T15:13:32;3.88;;;2.60;;
9597;SDS011;4837;50.890;4.724;2023-09-18T15:15:59;6.60;;;3.08;;
9597;SDS011;4837;50.890;4.724;2023-09-18T15:18:26;10.10;;;2.75;;
9597;SDS011;4837;50.890;4.724;2023-09-18T15:20:52;3.33;;;2.15;;
9597;SDS011;4837;50.890;4.724;2023-09-18T15:23:22;5.18;;;2.30;;
9597;SDS011;4837;50.890;4.724;2023-09-18T15:25:52;4.97;;;2.38;;
9597;SDS011;4837;50.890;4.724;2023-09-18T15:28:25;5.22;;;2.10;;
9597;SDS011;4837;50.890;4.724;2023-09-18T15:30:54;4.15;;;2.00;;
9597;SDS011;4837;50.890;4.724;2023-09-18T15:33:21;4.97;;;2.10;;
9597;SDS011;4837;50.890;4.724;2023-09-18T15:35:51;4.43;;;2.28;;
9597;SDS011;4837;50.890;4.724;2023-09-18T15:38:20;5.28;;;2.13;;
9597;SDS011;4837;50.890;4.724;2023-09-18T15:40:46;4.63;;;2.40;;
9597;SDS011;4837;50.890;4.724;2023-09-18T15:43:14;3.78;;;2.20;;
9597;SDS011;4837;50.890;4.724;2023-09-18T15:45:40;4.43;;;2.53;;
9597;SDS011;4837;50.890;4.724;2023-09-18T15:48:07;3.63;;;2.20;;
9597;SDS011;4837;50.890;4.724;2023-09-18T15:50:34;4.13;;;2.35;;
9597;SDS011;4837;50.890;4.724;2023-09-18T15:53:00;4.05;;;2.95;;
9597;SDS011;4837;50.890;4.724;2023-09-18T15:55:26;4.32;;;2.60;;
9597;SDS011;4837;50.890;4.724;2023-09-18T15:57:52;3.55;;;2.35;;
9597;SDS011;4837;50.890;4.724;2023-09-18T16:00:19;3.22;;;2.70;;
9597;SDS011;4837;50.890;4.724;2023-09-18T16:02:45;2.80;;;2.13;;
9597;SDS011;4837;50.890;4.724;2023-09-18T16:05:11;3.58;;;2.30;;
9597;SDS011;4837;50.890;4.724;2023-09-18T16:07:38;4.63;;;2.60;;
9597;SDS011;4837;50.890;4.724;2023-09-18T16:10:10;4.65;;;2.25;;
9597;SDS011;4837;50.890;4.724;2023-09-18T16:12:36;2.90;;;2.35;;
9597;SDS011;4837;50.890;4.724;2023-09-18T16:15:02;4.30;;;2.10;;
9597;SDS011;4837;50.890;4.724;2023-09-18T16:17:29;2.67;;;2.47;;
9597;SDS011;4837;50.890;4.724;2023-09-18T16:19:55;5.82;;;2.40;;
9597;SDS011;4837;50.890;4.724;2023-09-18T16:22:24;4.15;;;2.22;;
9597;SDS011;4837;50.890;4.724;2023-09-18T16:24:50;2.63;;;2.03;;
9597;SDS011;4837;50.890;4.724;2023-09-18T16:27:16;4.05;;;2.70;;
9597;SDS011;4837;50.890;4.724;2023-09-18T16:29:43;4.88;;;2.30;;
9597;SDS011;4837;50.890;4.724;2023-09-18T16:32:09;2.65;;;2.22;;
9597;SDS011;4837;50.890;4.724;2023-09-18T16:34:35;2.92;;;2.13;;
9597;SDS011;4837;50.890;4.724;2023-09-18T16:37:01;3.80;;;2.28;;
9597;SDS011;4837;50.890;4.724;2023-09-18T16:39:28;4.28;;;2.65;;
9597;SDS011;4837;50.890;4.724;2023-09-18T16:41:54;4.13;;;2.30;;
9597;SDS011;4837;50.890;4.724;2023-09-18T16:44:20;4.05;;;2.60;;
9597;SDS011;4837;50.890;4.724;2023-09-18T16:46:46;4.20;;;2.50;;
9597;SDS011;4837;50.890;4.724;2023-09-18T16:49:13;5.00;;;2.72;;
9597;SDS011;4837;50.890;4.724;2023-09-18T16:51:43;4.78;;;3.00;;
9597;SDS011;4837;50.890;4.724;2023-09-18T16:54:09;2.65;;;2.40;;
9597;SDS011;4837;50.890;4.724;2023-09-18T16:56:36;4.78;;;2.20;;
9597;SDS011;4837;50.890;4.724;2023-09-18T16:59:02;3.83;;;2.28;;
9597;SDS011;4837;50.890;4.724;2023-09-18T17:01:28;3.33;;;2.20;;
9597;SDS011;4837;50.890;4.724;2023-09-18T17:03:54;3.92;;;1.95;;
9597;SDS011;4837;50.890;4.724;2023-09-18T17:06:21;3.58;;;2.03;;
9597;SDS011;4837;50.890;4.724;2023-09-18T17:08:47;3.33;;;1.90;;
9597;SDS011;4837;50.890;4.724;2023-09-18T17:11:16;2.67;;;1.70;;
9597;SDS011;4837;50.890;4.724;2023-09-18T17:13:43;2.88;;;2.00;;
9597;SDS011;4837;50.890;4.724;2023-09-18T17:16:09;2.45;;;1.60;;
9597;SDS011;4837;50.890;4.724;2023-09-18T17:18:37;1.75;;;1.30;;
9597;SDS011;4837;50.890;4.724;2023-09-18T17:21:04;2.30;;;1.50;;
9597;SDS011;4837;50.890;4.724;2023-09-18T17:23:31;2.70;;;1.40;;
9597;SDS011;4837;50.890;4.724;2023-09-18T17:25:57;1.55;;;1.30;;
9597;SDS011;4837;50.890;4.724;2023-09-18T17:28:24;2.08;;;1.50;;
9597;SDS011;4837;50.890;4.724;2023-09-18T17:30:50;2.55;;;1.42;;
9597;SDS011;4837;50.890;4.724;2023-09-18T17:33:17;3.95;;;1.48;;
9597;SDS011;4837;50.890;4.724;2023-09-18T17:35:43;2.10;;;1.33;;
9597;SDS011;4837;50.890;4.724;2023-09-18T17:38:13;2.55;;;1.30;;
9597;SDS011;4837;50.890;4.724;2023-09-18T17:40:40;2.65;;;1.55;;
9597;SDS011;4837;50.890;4.724;2023-09-18T17:43:06;3.00;;;1.60;;
9597;SDS011;4837;50.890;4.724;2023-09-18T17:45:32;2.90;;;1.50;;
9597;SDS011;4837;50.890;4.724;2023-09-18T17:47:59;1.95;;;1.35;;
9597;SDS011;4837;50.890;4.724;2023-09-18T17:50:25;3.00;;;1.30;;
9597;SDS011;4837;50.890;4.724;2023-09-18T17:52:51;5.00;;;1.50;;
9597;SDS011;4837;50.890;4.724;2023-09-18T17:55:17;3.40;;;1.27;;
9597;SDS011;4837;50.890;4.724;2023-09-18T17:57:44;1.67;;;1.10;;
9597;SDS011;4837;50.890;4.724;2023-09-18T18:00:10;4.45;;;1.63;;
9597;SDS011;4837;50.890;4.724;2023-09-18T18:02:40;3.80;;;1.35;;
9597;SDS011;4837;50.890;4.724;2023-09-18T18:05:08;2.58;;;1.60;;
9597;SDS011;4837;50.890;4.724;2023-09-18T18:07:34;2.83;;;1.45;;
9597;SDS011;4837;50.890;4.724;2023-09-18T18:10:00;1.58;;;1.13;;
9597;SDS011;4837;50.890;4.724;2023-09-18T18:12:26;3.35;;;1.65;;
9597;SDS011;4837;50.890;4.724;2023-09-18T18:14:53;2.70;;;1.65;;
9597;SDS011;4837;50.890;4.724;2023-09-18T18:17:19;2.72;;;1.48;;
9597;SDS011;4837;50.890;4.724;2023-09-18T18:19:45;3.63;;;1.75;;
9597;SDS011;4837;50.890;4.724;2023-09-18T18:22:12;4.15;;;1.73;;
9597;SDS011;4837;50.890;4.724;2023-09-18T18:24:39;3.72;;;1.60;;
9597;SDS011;4837;50.890;4.724;2023-09-18T18:27:05;2.13;;;1.42;;
9597;SDS011;4837;50.890;4.724;2023-09-18T18:29:32;3.53;;;1.60;;
9597;SDS011;4837;50.890;4.724;2023-09-18T18:31:58;5.57;;;2.00;;
9597;SDS011;4837;50.890;4.724;2023-09-18T18:34:24;6.05;;;1.60;;
9597;SDS011;4837;50.890;4.724;2023-09-18T18:36:50;3.72;;;1.50;;
9597;SDS011;4837;50.890;4.724;2023-09-18T18:39:17;4.25;;;1.70;;
9597;SDS011;4837;50.890;4.724;2023-09-18T18:41:43;4.50;;;1.88;;
9597;SDS011;4837;50.890;4.724;2023-09-18T18:44:09;5.35;;;2.05;;
9597;SDS011;4837;50.890;4.724;2023-09-18T18:46:36;7.68;;;1.88;;
9597;SDS011;4837;50.890;4.724;2023-09-18T18:49:02;3.60;;;1.70;;
9597;SDS011;4837;50.890;4.724;2023-09-18T18:51:28;3.10;;;1.67;;
9597;SDS011;4837;50.890;4.724;2023-09-18T18:53:54;5.97;;;1.90;;
9597;SDS011;4837;50.890;4.724;2023-09-18T18:56:22;3.75;;;1.70;;
9597;SDS011;4837;50.890;4.724;2023-09-18T18:58:48;5.47;;;1.63;;
9597;SDS011;4837;50.890;4.724;2023-09-18T19:01:15;3.97;;;1.70;;
9597;SDS011;4837;50.890;4.724;2023-09-18T19:03:44;3.60;;;1.80;;
9597;SDS011;4837;50.890;4.724;2023-09-18T19:06:11;3.63;;;1.55;;
9597;SDS011;4837;50.890;4.724;2023-09-18T19:08:37;5.65;;;2.25;;
9597;SDS011;4837;50.890;4.724;2023-09-18T19:11:04;6.82;;;2.40;;
9597;SDS011;4837;50.890;4.724;2023-09-18T19:13:31;4.85;;;1.90;;
9597;SDS011;4837;50.890;4.724;2023-09-18T19:15:58;4.78;;;1.60;;
9597;SDS011;4837;50.890;4.724;2023-09-18T19:18:24;7.30;;;2.00;;
9597;SDS011;4837;50.890;4.724;2023-09-18T19:20:51;5.40;;;1.70;;
9597;SDS011;4837;50.890;4.724;2023-09-18T19:23:17;6.15;;;2.13;;
9597;SDS011;4837;50.890;4.724;2023-09-18T19:25:49;7.53;;;2.10;;
9597;SDS011;4837;50.890;4.724;2023-09-18T19:28:16;5.70;;;2.03;;
9597;SDS011;4837;50.890;4.724;2023-09-18T19:30:42;6.95;;;2.55;;
9597;SDS011;4837;50.890;4.724;2023-09-18T19:33:14;6.20;;;1.83;;
9597;SDS011;4837;50.890;4.724;2023-09-18T19:35:41;3.72;;;1.70;;
9597;SDS011;4837;50.890;4.724;2023-09-18T19:38:08;5.30;;;1.80;;
9597;SDS011;4837;50.890;4.724;2023-09-18T19:40:38;5.95;;;1.90;;
9597;SDS011;4837;50.890;4.724;2023-09-18T19:43:04;6.35;;;2.20;;
9597;SDS011;4837;50.890;4.724;2023-09-18T19:45:31;7.65;;;1.92;;
9597;SDS011;4837;50.890;4.724;2023-09-18T19:47:57;5.20;;;1.95;;
9597;SDS011;4837;50.890;4.724;2023-09-18T19:50:23;6.85;;;2.15;;
9597;SDS011;4837;50.890;4.724;2023-09-18T19:52:54;5.32;;;1.63;;
9597;SDS011;4837;50.890;4.724;2023-09-18T19:55:21;5.63;;;1.58;;
9597;SDS011;4837;50.890;4.724;2023-09-18T19:57:49;7.15;;;1.83;;
9597;SDS011;4837;50.890;4.724;2023-09-18T20:00:15;9.88;;;2.40;;
9597;SDS011;4837;50.890;4.724;2023-09-18T20:02:41;7.88;;;1.90;;
9597;SDS011;4837;50.890;4.724;2023-09-18T20:05:08;6.25;;;1.88;;
9597;SDS011;4837;50.890;4.724;2023-09-18T20:07:35;5.53;;;1.83;;
9597;SDS011;4837;50.890;4.724;2023-09-18T20:10:02;7.88;;;2.20;;
9597;SDS011;4837;50.890;4.724;2023-09-18T20:12:28;5.60;;;2.42;;
9597;SDS011;4837;50.890;4.724;2023-09-18T20:14:55;9.82;;;2.25;;
9597;SDS011;4837;50.890;4.724;2023-09-18T20:17:21;7.85;;;2.13;;
9597;SDS011;4837;50.890;4.724;2023-09-18T20:19:48;6.60;;;1.90;;
9597;SDS011;4837;50.890;4.724;2023-09-18T20:22:15;9.65;;;2.38;;
9597;SDS011;4837;50.890;4.724;2023-09-18T20:24:41;7.70;;;2.42;;
9597;SDS011;4837;50.890;4.724;2023-09-18T20:27:08;8.68;;;2.35;;
9597;SDS011;4837;50.890;4.724;2023-09-18T20:29:35;8.02;;;2.38;;
9597;SDS011;4837;50.890;4.724;2023-09-18T20:32:01;8.48;;;2.83;;
9597;SDS011;4837;50.890;4.724;2023-09-18T20:34:28;5.70;;;2.17;;
9597;SDS011;4837;50.890;4.724;2023-09-18T20:36:55;8.65;;;2.35;;
9597;SDS011;4837;50.890;4.724;2023-09-18T20:39:27;5.55;;;2.33;;
9597;SDS011;4837;50.890;4.724;2023-09-18T20:41:53;8.10;;;2.30;;
9597;SDS011;4837;50.890;4.724;2023-09-18T20:44:21;10.65;;;2.63;;
9597;SDS011;4837;50.890;4.724;2023-09-18T20:46:48;9.20;;;2.30;;
9597;SDS011;4837;50.890;4.724;2023-09-18T20:49:15;8.05;;;2.33;;
9597;SDS011;4837;50.890;4.724;2023-09-18T20:51:42;8.93;;;2.75;;
9597;SDS011;4837;50.890;4.724;2023-09-18T20:54:08;8.63;;;2.40;;
9597;SDS011;4837;50.890;4.724;2023-09-18T20:56:34;7.03;;;2.10;;
9597;SDS011;4837;50.890;4.724;2023-09-18T20:59:02;9.10;;;2.60;;
9597;SDS011;4837;50.890;4.724;2023-09-18T21:01:28;10.07;;;2.47;;
9597;SDS011;4837;50.890;4.724;2023-09-18T21:03:55;9.57;;;2.65;;
9597;SDS011;4837;50.890;4.724;2023-09-18T21:06:21;11.32;;;2.80;;
9597;SDS011;4837;50.890;4.724;2023-09-18T21:08:48;10.27;;;2.38;;
9597;SDS011;4837;50.890;4.724;2023-09-18T21:11:17;9.68;;;2.60;;
9597;SDS011;4837;50.890;4.724;2023-09-18T21:13:46;8.45;;;2.63;;
9597;SDS011;4837;50.890;4.724;2023-09-18T21:16:16;7.93;;;2.67;;
9597;SDS011;4837;50.890;4.724;2023-09-18T21:18:42;9.90;;;2.72;;
9597;SDS011;4837;50.890;4.724;2023-09-18T21:21:09;8.73;;;2.72;;
9597;SDS011;4837;50.890;4.724;2023-09-18T21:23:35;12.18;;;2.90;;
9597;SDS011;4837;50.890;4.724;2023-09-18T21:26:01;8.43;;;2.80;;
9597;SDS011;4837;50.890;4.724;2023-09-18T21:28:29;8.75;;;2.80;;
9597;SDS011;4837;50.890;4.724;2023-09-18T21:31:06;7.93;;;2.40;;
9597;SDS011;4837;50.890;4.724;2023-09-18T21:33:32;10.07;;;2.67;;
9597;SDS011;4837;50.890;4.724;2023-09-18T21:35:58;10.45;;;2.65;;
9597;SDS011;4837;50.890;4.724;2023-09-18T21:38:24;8.40;;;2.80;;
9597;SDS011;4837;50.890;4.724;2023-09-18T21:40:51;9.15;;;2.25;;
9597;SDS011;4837;50.890;4.724;2023-09-18T21:43:17;11.02;;;2.70;;
9597;SDS011;4837;50.890;4.724;2023-09-18T21:45:43;7.80;;;2.35;;
9597;SDS011;4837;50.890;4.724;2023-09-18T21:48:09;7.55;;;2.33;;
9597;SDS011;4837;50.890;4.724;2023-09-18T21:50:36;10.35;;;2.72;;
9597;SDS011;4837;50.890;4.724;2023-09-18T21:53:02;10.38;;;2.65;;
9597;SDS011;4837;50.890;4.724;2023-09-18T21:55:28;8.70;;;2.50;;
9597;SDS011;4837;50.890;4.724;2023-09-18T21:57:54;9.60;;;2.75;;
9597;SDS011;4837;50.890;4.724;2023-09-18T22:00:20;12.95;;;3.28;;
9597;SDS011;4837;50.890;4.724;2023-09-18T22:03:05;10.05;;;2.90;;
9597;SDS011;4837;50.890;4.724;2023-09-18T22:05:31;9.07;;;2.75;;
9597;SDS011;4837;50.890;4.724;2023-09-18T22:07:57;12.30;;;2.92;;
9597;SDS011;4837;50.890;4.724;2023-09-18T22:10:24;6.38;;;2.50;;
9597;SDS011;4837;50.890;4.724;2023-09-18T22:12:50;11.10;;;2.80;;
9597;SDS011;4837;50.890;4.724;2023-09-18T22:15:16;9.82;;;2.70;;
9597;SDS011;4837;50.890;4.724;2023-09-18T22:17:42;6.05;;;2.35;;
9597;SDS011;4837;50.890;4.724;2023-09-18T22:20:08;13.23;;;2.80;;
9597;SDS011;4837;50.890;4.724;2023-09-18T22:22:35;10.52;;;2.75;;
9597;SDS011;4837;50.890;4.724;2023-09-18T22:25:02;9.90;;;2.55;;
9597;SDS011;4837;50.890;4.724;2023-09-18T22:27:28;10.30;;;3.10;;
9597;SDS011;4837;50.890;4.724;2023-09-18T22:29:54;8.90;;;2.40;;
9597;SDS011;4837;50.890;4.724;2023-09-18T22:32:21;11.93;;;2.30;;
9597;SDS011;4837;50.890;4.724;2023-09-18T22:34:51;8.88;;;2.53;;
9597;SDS011;4837;50.890;4.724;2023-09-18T22:37:20;12.50;;;3.15;;
9597;SDS011;4837;50.890;4.724;2023-09-18T22:55:29;14.27;;;2.90;;
9597;SDS011;4837;50.890;4.724;2023-09-18T22:57:57;13.15;;;2.78;;
9597;SDS011;4837;50.890;4.724;2023-09-18T23:00:24;9.98;;;2.03;;
9597;SDS011;4837;50.890;4.724;2023-09-18T23:20:02;10.10;;;2.95;;
